Time;durP1;ratioP1;P1;durP2;ratioP2;P2;SDS_P1;SDS_P2;PMS_P1;PMS_P2;Temp;Humidity;BMP_temperature;BMP_pressure;BME280_temperature;BME280_humidity;BME280_pressure;Samples;Min_cycle;Max_cycle;Signal;HPM_P1;HPM_P2
2023/05/23 00:01:45;;;;;;;13.10;8.55;;;410.50;2355.20;;;;;;5055633;28;20029;-84
2023/05/23 00:04:15;;;;;;;13.07;8.90;;;410.20;2355.20;;;;;;5053212;28;20021;-82
2023/05/23 00:06:45;;;;;;;9.07;7.25;;;410.30;2355.20;;;;;;5054736;28;20029;-83
2023/05/23 00:09:14;;;;;;;13.40;8.23;;;410.30;2355.20;;;;;;5058828;28;20028;-84
2023/05/23 00:11:43;;;;;;;9.70;7.78;;;410.20;2355.20;;;;;;5057105;28;20580;-84
2023/05/23 00:14:13;;;;;;;15.50;7.90;;;410.40;2355.20;;;;;;5056374;28;20037;-85
2023/05/23 00:16:40;;;;;;;10.38;8.35;;;410.30;2355.20;;;;;;5056535;28;20075;-84
2023/05/23 00:19:07;;;;;;;14.20;8.80;;;410.00;2355.20;;;;;;5058607;28;20033;-84
2023/05/23 00:21:33;;;;;;;15.55;9.27;;;410.20;2355.20;;;;;;5059237;28;20025;-83
2023/05/23 00:23:58;;;;;;;13.63;8.05;;;409.80;2355.20;;;;;;5059607;28;20040;-84
2023/05/23 00:26:28;;;;;;;13.77;7.60;;;409.70;2355.20;;;;;;5062981;28;20036;-85
2023/05/23 00:28:55;;;;;;;12.27;7.88;;;409.90;2355.20;;;;;;5062420;28;20475;-83
2023/05/23 00:31:21;;;;;;;14.30;8.45;;;410.00;2355.20;;;;;;5062242;28;20017;-84
2023/05/23 00:33:47;;;;;;;12.82;8.20;;;410.10;2355.20;;;;;;5060520;28;20037;-84
2023/05/23 00:36:13;;;;;;;11.18;8.63;;;410.10;2355.20;;;;;;5059785;28;20070;-84
2023/05/23 00:38:39;;;;;;;10.73;8.00;;;410.00;2355.20;;;;;;5060063;28;20385;-84
2023/05/23 00:41:05;;;;;;;14.35;8.95;;;409.90;2355.20;;;;;;5071362;28;20021;-84
2023/05/23 00:43:31;;;;;;;13.07;8.18;;;410.00;2355.20;;;;;;5072542;28;20029;-84
2023/05/23 00:45:59;;;;;;;13.02;7.90;;;410.00;2355.20;;;;;;5070337;28;20416;-84
2023/05/23 00:48:25;;;;;;;14.88;9.25;;;410.10;2355.20;;;;;;5069928;28;20494;-85
2023/05/23 00:50:52;;;;;;;13.32;8.50;;;409.90;2355.20;;;;;;5071080;28;20032;-84
2023/05/23 00:53:18;;;;;;;12.25;7.78;;;409.90;2355.20;;;;;;5069615;28;20025;-84
2023/05/23 00:55:44;;;;;;;10.15;7.75;;;409.80;2355.20;;;;;;5069155;28;20037;-84
2023/05/23 00:58:12;;;;;;;11.70;7.93;;;410.00;2355.20;;;;;;5071488;28;20029;-83
2023/05/23 01:00:39;;;;;;;13.35;8.13;;;409.70;2355.20;;;;;;5080204;28;20025;-81
2023/05/23 01:03:04;;;;;;;10.13;7.82;;;384.90;2329.60;;;;;;5079940;28;20009;-84
2023/05/23 01:05:30;;;;;;;15.88;9.00;;;384.90;2329.60;;;;;;5079787;28;20016;-83
2023/05/23 01:07:56;;;;;;;11.65;8.25;;;409.60;2355.20;;;;;;5079877;28;20020;-85
2023/05/23 01:10:29;;;;;;;12.43;8.20;;;409.60;2355.20;;;;;;5079666;28;20020;-85
2023/05/23 01:13:19;;;;;;;11.68;8.40;;;384.90;2329.60;;;;;;5079777;28;20009;-84
2023/05/23 01:16:02;;;;;;;11.52;8.40;;;409.60;2355.20;;;;;;5072823;28;20041;-83
2023/05/23 01:18:45;;;;;;;14.48;8.45;;;409.70;2355.20;;;;;;5070219;28;20036;-83
2023/05/23 01:21:16;;;;;;;10.93;8.43;;;409.60;2355.20;;;;;;5054194;28;20090;-83
2023/05/23 01:24:01;;;;;;;12.65;9.02;;;384.80;2329.60;;;;;;5070449;28;20084;-84
2023/05/23 01:26:43;;;;;;;13.85;9.73;;;384.90;2329.60;;;;;;5070173;28;20180;-84
2023/05/23 01:29:23;;;;;;;13.73;8.60;;;384.90;2329.60;;;;;;5075464;28;20025;-84
2023/05/23 01:31:53;;;;;;;11.63;7.97;;;384.90;2329.60;;;;;;5060424;28;20021;-84
2023/05/23 01:34:21;;;;;;;15.10;9.30;;;384.90;2329.60;;;;;;5060397;28;20393;-85
2023/05/23 01:36:53;;;;;;;11.40;8.98;;;384.90;2329.60;;;;;;5057461;28;20481;-84
2023/05/23 01:39:19;;;;;;;19.85;8.40;;;384.90;2329.60;;;;;;5059220;28;20083;-84
2023/05/23 01:41:46;;;;;;;11.77;8.57;;;384.60;2329.60;;;;;;5063333;28;20021;-82
2023/05/23 01:44:12;;;;;;;12.30;8.05;;;384.70;2329.60;;;;;;5064370;28;20025;-83
2023/05/23 01:46:39;;;;;;;9.70;7.40;;;384.90;2329.60;;;;;;5064152;28;20076;-85
2023/05/23 01:49:08;;;;;;;14.70;8.00;;;384.70;2329.60;;;;;;5055504;28;20040;-85
2023/05/23 01:51:34;;;;;;;18.10;7.65;;;384.70;2329.60;;;;;;5053919;28;20044;-84
2023/05/23 01:54:00;;;;;;;11.98;8.35;;;384.70;2329.60;;;;;;5054267;28;20025;-85
2023/05/23 01:56:27;;;;;;;9.30;7.10;;;384.70;2329.60;;;;;;5054565;28;20025;-84
2023/05/23 01:58:53;;;;;;;14.45;8.35;;;384.70;2329.60;;;;;;5053916;28;20146;-85
2023/05/23 02:01:19;;;;;;;11.52;7.72;;;384.70;2329.60;;;;;;5055046;28;20100;-84
2023/05/23 02:03:45;;;;;;;11.18;7.80;;;384.60;2329.60;;;;;;5053504;28;20116;-84
2023/05/23 02:06:11;;;;;;;11.65;7.65;;;384.60;2329.60;;;;;;5053671;28;20029;-85
2023/05/23 02:08:37;;;;;;;12.07;8.15;;;384.40;2329.60;;;;;;5053768;28;20064;-85
2023/05/23 02:11:03;;;;;;;13.30;8.65;;;384.40;2329.60;;;;;;5053629;28;20053;-84
2023/05/23 02:13:29;;;;;;;12.82;8.77;;;384.40;2329.60;;;;;;5053536;28;20059;-85
2023/05/23 02:15:55;;;;;;;13.52;8.70;;;384.30;2329.60;;;;;;5053635;28;20025;-84
2023/05/23 02:18:21;;;;;;;9.40;7.93;;;359.30;2329.60;;;;;;5053444;28;20032;-85
2023/05/23 02:20:47;;;;;;;14.43;8.48;;;384.10;2329.60;;;;;;5053101;28;20124;-86
2023/05/23 02:23:13;;;;;;;9.55;7.47;;;384.10;2329.60;;;;;;5054593;28;20116;-84
2023/05/23 02:25:38;;;;;;;10.77;7.95;;;384.10;2329.60;;;;;;5053151;28;20021;-84
2023/05/23 02:28:04;;;;;;;8.98;7.53;;;384.00;2329.60;;;;;;5053402;28;20033;-84
2023/05/23 02:30:30;;;;;;;10.38;7.65;;;384.00;2329.60;;;;;;5053089;28;20082;-85
2023/05/23 02:32:57;;;;;;;10.38;7.55;;;384.00;2329.60;;;;;;5053366;28;20489;-82
2023/05/23 02:35:22;;;;;;;9.10;6.78;;;384.00;2329.60;;;;;;5053625;28;20116;-82
2023/05/23 02:37:48;;;;;;;9.25;7.05;;;384.10;2329.60;;;;;;5053576;28;20083;-82
2023/05/23 02:40:14;;;;;;;9.68;7.15;;;384.00;2329.60;;;;;;5054698;28;20041;-81
2023/05/23 02:42:40;;;;;;;11.13;7.55;;;359.30;2329.60;;;;;;5056190;28;20120;-82
2023/05/23 02:45:06;;;;;;;10.73;8.00;;;359.20;2329.60;;;;;;5052867;28;20025;-82
2023/05/23 02:47:32;;;;;;;10.25;7.47;;;384.30;2329.60;;;;;;5043161;28;20112;-82
2023/05/23 02:49:58;;;;;;;14.18;7.82;;;359.30;2329.60;;;;;;5052901;28;20036;-82
2023/05/23 02:52:24;;;;;;;11.70;7.78;;;359.20;2329.60;;;;;;5053964;28;20021;-83
2023/05/23 02:54:50;;;;;;;13.63;8.15;;;359.10;2329.60;;;;;;5052784;28;20061;-81
2023/05/23 02:57:16;;;;;;;13.90;8.35;;;359.20;2329.60;;;;;;5052604;28;20521;-81
2023/05/23 02:59:43;;;;;;;10.60;7.85;;;359.20;2329.60;;;;;;5036491;28;20045;-82
2023/05/23 03:02:09;;;;;;;12.93;7.30;;;359.20;2329.60;;;;;;5053774;28;20071;-81
2023/05/23 03:04:36;;;;;;;15.50;8.05;;;359.20;2329.60;;;;;;5052343;28;20040;-83
2023/05/23 03:07:02;;;;;;;10.02;7.75;;;359.00;2329.60;;;;;;5052753;28;20036;-81
2023/05/23 03:09:28;;;;;;;13.77;7.55;;;358.90;2329.60;;;;;;5053076;28;20029;-83
2023/05/23 03:11:54;;;;;;;9.65;7.13;;;358.90;2329.60;;;;;;5052369;28;20467;-81
2023/05/23 03:14:20;;;;;;;10.07;7.20;;;358.90;2329.60;;;;;;5053011;28;20029;-82
2023/05/23 03:16:45;;;;;;;11.45;8.43;;;358.90;2329.60;;;;;;5052667;28;20025;-82
2023/05/23 03:19:11;;;;;;;16.08;8.43;;;359.00;2329.60;;;;;;5052743;28;20474;-82
2023/05/23 03:21:38;;;;;;;10.90;7.95;;;358.90;2329.60;;;;;;5052887;28;20052;-82
2023/05/23 03:24:04;;;;;;;12.55;8.80;;;358.90;2329.60;;;;;;5051481;28;20017;-82
2023/05/23 03:26:29;;;;;;;8.43;7.13;;;359.00;2329.60;;;;;;5052386;28;20488;-83
2023/05/23 03:28:55;;;;;;;11.90;7.85;;;359.00;2329.60;;;;;;5052649;28;20528;-82
2023/05/23 03:31:21;;;;;;;14.93;8.40;;;358.90;2329.60;;;;;;5052507;28;20056;-82
2023/05/23 03:33:47;;;;;;;10.40;7.88;;;358.60;2329.60;;;;;;5052562;28;20397;-82
2023/05/23 03:36:13;;;;;;;10.70;8.60;;;358.80;2329.60;;;;;;5053268;28;20099;-82
2023/05/23 03:38:38;;;;;;;15.93;8.30;;;358.90;2329.60;;;;;;5053121;28;20032;-82
2023/05/23 03:41:04;;;;;;;14.40;8.75;;;358.90;2329.60;;;;;;5054325;28;20021;-82
2023/05/23 03:43:30;;;;;;;14.95;8.88;;;358.80;2329.60;;;;;;5057715;28;20029;-82
2023/05/23 03:45:56;;;;;;;11.45;8.02;;;358.90;2329.60;;;;;;5057096;28;20025;-82
2023/05/23 03:48:22;;;;;;;16.10;8.30;;;358.90;2329.60;;;;;;5056668;28;20031;-83
2023/05/23 03:50:47;;;;;;;12.95;8.48;;;358.90;2329.60;;;;;;5056711;28;20024;-82
2023/05/23 03:53:13;;;;;;;15.70;9.98;;;359.00;2329.60;;;;;;5057928;28;20413;-82
2023/05/23 03:55:39;;;;;;;15.30;9.57;;;358.90;2329.60;;;;;;5056580;28;20021;-83
2023/05/23 03:58:05;;;;;;;13.60;10.15;;;359.00;2329.60;;;;;;5055749;28;20057;-82
2023/05/23 04:00:30;;;;;;;14.25;9.30;;;359.00;2329.60;;;;;;5055791;28;20044;-81
2023/05/23 04:02:56;;;;;;;11.82;8.65;;;359.00;2329.60;;;;;;5056189;28;20032;-81
2023/05/23 04:05:22;;;;;;;13.55;8.65;;;358.90;2329.60;;;;;;5056078;28;20115;-82
2023/05/23 04:07:48;;;;;;;14.25;8.85;;;358.80;2329.60;;;;;;5055684;28;20489;-83
2023/05/23 04:10:14;;;;;;;11.23;8.40;;;358.80;2329.60;;;;;;5056183;28;20025;-82
2023/05/23 04:12:43;;;;;;;13.88;8.48;;;358.80;2329.60;;;;;;5055834;28;20025;-83
2023/05/23 04:15:10;;;;;;;15.30;9.18;;;358.80;2329.60;;;;;;5055658;28;20029;-82
2023/05/23 04:17:37;;;;;;;16.88;9.20;;;358.80;2329.60;;;;;;5056107;28;20025;-83
2023/05/23 04:20:08;;;;;;;10.52;7.90;;;358.80;2329.60;;;;;;5057136;28;20414;-82
2023/05/23 04:22:34;;;;;;;10.75;7.85;;;358.80;2329.60;;;;;;5055783;28;20111;-81
2023/05/23 04:25:00;;;;;;;13.80;8.70;;;358.90;2329.60;;;;;;5055641;28;20025;-83
2023/05/23 04:27:26;;;;;;;12.43;8.15;;;359.00;2329.60;;;;;;5055370;28;20481;-81
2023/05/23 04:29:52;;;;;;;14.85;9.45;;;359.00;2329.60;;;;;;5055374;28;20056;-82
2023/05/23 04:32:21;;;;;;;13.70;8.48;;;359.00;2329.60;;;;;;5056869;28;20040;-82
2023/05/23 04:34:47;;;;;;;13.27;8.20;;;359.00;2329.60;;;;;;5055833;28;20363;-83
2023/05/23 04:37:13;;;;;;;10.30;8.30;;;359.20;2329.60;;;;;;5055587;28;20083;-82
2023/05/23 04:39:39;;;;;;;15.32;8.07;;;359.20;2329.60;;;;;;5055673;28;20025;-83
2023/05/23 04:42:06;;;;;;;18.27;9.20;;;359.00;2329.60;;;;;;5055386;28;20025;-83
2023/05/23 04:44:32;;;;;;;11.27;7.97;;;359.10;2329.60;;;;;;5055743;28;20021;-83
2023/05/23 04:46:58;;;;;;;14.15;9.00;;;359.10;2329.60;;;;;;5056058;28;20033;-83
2023/05/23 04:49:24;;;;;;;13.43;8.75;;;359.20;2329.60;;;;;;5056040;28;20467;-84
2023/05/23 04:51:50;;;;;;;14.13;8.93;;;359.30;2329.60;;;;;;5054415;28;20382;-83
2023/05/23 04:54:15;;;;;;;16.42;10.18;;;384.00;2329.60;;;;;;5056971;28;20059;-84
2023/05/23 04:56:41;;;;;;;12.95;9.57;;;384.00;2329.60;;;;;;5054560;28;20057;-82
2023/05/23 04:59:10;;;;;;;16.33;9.02;;;384.00;2329.60;;;;;;5055875;28;20041;-83
2023/05/23 05:01:39;;;;;;;16.77;9.00;;;384.00;2329.60;;;;;;5055163;28;20052;-83
2023/05/23 05:04:05;;;;;;;13.07;9.10;;;359.30;2329.60;;;;;;5055156;28;20071;-84
2023/05/23 05:06:32;;;;;;;13.85;8.82;;;384.00;2329.60;;;;;;5055348;28;20028;-83
2023/05/23 05:08:57;;;;;;;13.00;8.77;;;384.10;2329.60;;;;;;5055065;28;20037;-84
2023/05/23 05:11:25;;;;;;;14.57;7.78;;;384.20;2329.60;;;;;;5054445;28;20125;-85
2023/05/23 05:13:51;;;;;;;15.00;8.07;;;384.20;2329.60;;;;;;5054940;28;20025;-83
2023/05/23 05:16:17;;;;;;;14.85;7.57;;;384.30;2329.60;;;;;;5054926;28;20138;-84
2023/05/23 05:18:43;;;;;;;12.77;8.35;;;384.30;2329.60;;;;;;5054747;28;20078;-84
2023/05/23 05:21:09;;;;;;;14.35;8.88;;;384.30;2329.60;;;;;;5057432;28;20032;-84
2023/05/23 05:23:35;;;;;;;17.67;9.88;;;384.40;2329.60;;;;;;5057937;28;20037;-84
2023/05/23 05:26:02;;;;;;;13.73;9.43;;;384.50;2329.60;;;;;;5054552;28;20116;-83
2023/05/23 05:28:27;;;;;;;18.58;9.05;;;384.50;2329.60;;;;;;5055864;28;20072;-85
2023/05/23 05:30:53;;;;;;;16.23;8.70;;;384.40;2329.60;;;;;;5054665;28;20390;-83
2023/05/23 05:33:22;;;;;;;11.90;8.32;;;384.50;2329.60;;;;;;5054148;28;20029;-84
2023/05/23 05:35:50;;;;;;;17.92;8.65;;;384.70;2329.60;;;;;;5054552;28;20112;-84
2023/05/23 05:38:16;;;;;;;14.77;8.57;;;384.60;2329.60;;;;;;5054261;28;20039;-82
2023/05/23 05:40:42;;;;;;;15.13;8.23;;;384.70;2329.60;;;;;;5054362;28;20017;-84
2023/05/23 05:43:08;;;;;;;16.27;8.70;;;384.90;2329.60;;;;;;5055510;28;20036;-83
2023/05/23 05:45:35;;;;;;;14.85;9.15;;;409.60;2355.20;;;;;;5055491;28;20029;-84
2023/05/23 05:48:01;;;;;;;16.45;9.35;;;409.70;2355.20;;;;;;5054402;28;20036;-85
2023/05/23 05:50:26;;;;;;;9.43;8.43;;;409.70;2355.20;;;;;;5054171;28;20140;-83
2023/05/23 05:52:52;;;;;;;16.02;8.40;;;409.80;2355.20;;;;;;5053837;28;20029;-82
2023/05/23 05:55:18;;;;;;;13.07;8.70;;;409.90;2355.20;;;;;;5054064;28;20036;-83
2023/05/23 05:57:44;;;;;;;12.85;8.20;;;410.00;2355.20;;;;;;5053545;28;20110;-82
2023/05/23 06:00:13;;;;;;;15.05;8.15;;;410.20;2355.20;;;;;;5053662;28;20360;-83
2023/05/23 06:02:43;;;;;;;16.33;8.82;;;410.30;2355.20;;;;;;5053789;28;20120;-82
2023/05/23 06:05:15;;;;;;;12.48;7.90;;;410.50;2355.20;;;;;;5052860;28;20327;-81
2023/05/23 06:07:44;;;;;;;10.52;8.25;;;435.20;2355.20;;;;;;5053841;28;20029;-83
2023/05/23 06:10:12;;;;;;;15.00;8.85;;;435.30;2355.20;;;;;;5054577;28;20378;-83
2023/05/23 06:12:38;;;;;;;18.52;8.80;;;435.40;2355.20;;;;;;5053794;28;20024;-84
2023/05/23 06:15:05;;;;;;;15.88;8.30;;;435.50;2355.20;;;;;;5053546;28;20437;-86
2023/05/23 06:17:31;;;;;;;12.27;8.05;;;435.60;2355.20;;;;;;5054622;28;20033;-85
2023/05/23 06:19:57;;;;;;;9.18;7.70;;;435.60;2355.20;;;;;;5053621;28;20047;-85
2023/05/23 06:22:23;;;;;;;13.48;7.20;;;435.80;2355.20;;;;;;5053443;28;20052;-85
2023/05/23 06:24:49;;;;;;;11.02;6.88;;;435.90;2355.20;;;;;;5053372;28;20036;-82
2023/05/23 06:27:14;;;;;;;17.90;8.30;;;436.00;2355.20;;;;;;5053565;28;20040;-82
2023/05/23 06:29:40;;;;;;;11.73;7.35;;;436.10;2355.20;;;;;;5054282;28;20481;-84
2023/05/23 06:32:06;;;;;;;12.18;7.20;;;460.90;2380.80;;;;;;5054854;28;20021;-84
2023/05/23 06:34:32;;;;;;;10.63;7.15;;;461.10;2380.80;;;;;;5058057;28;20025;-84
2023/05/23 06:36:58;;;;;;;11.63;7.57;;;461.10;2380.80;;;;;;5055605;28;20029;-84
2023/05/23 06:39:24;;;;;;;11.40;6.93;;;461.20;2380.80;;;;;;5060261;28;20052;-83
2023/05/23 06:41:50;;;;;;;12.65;7.07;;;461.30;2380.80;;;;;;5055457;28;20021;-83
2023/05/23 06:44:16;;;;;;;10.02;6.55;;;461.50;2380.80;;;;;;5055728;28;20064;-85
2023/05/23 06:46:46;;;;;;;9.75;7.00;;;461.70;2380.80;;;;;;5055428;28;20029;-86
2023/05/23 06:49:12;;;;;;;7.80;6.07;;;486.40;2380.80;;;;;;5057305;28;20037;-83
2023/05/23 06:51:37;;;;;;;8.98;6.40;;;486.40;2380.80;;;;;;5053228;28;20028;-83
2023/05/23 06:54:04;;;;;;;9.52;6.30;;;486.70;2380.80;;;;;;5055347;28;20028;-84
2023/05/23 06:56:29;;;;;;;10.88;6.65;;;486.70;2380.80;;;;;;5053254;28;20028;-84
2023/05/23 06:58:55;;;;;;;10.45;6.40;;;486.80;2380.80;;;;;;5053404;28;20497;-85
2023/05/23 07:01:21;;;;;;;9.43;6.30;;;487.10;2380.80;;;;;;5053016;28;20146;-83
2023/05/23 07:03:47;;;;;;;9.93;5.90;;;487.10;2380.80;;;;;;5052749;28;20487;-83
2023/05/23 07:06:13;;;;;;;8.32;5.90;;;487.20;2380.80;;;;;;5053120;28;20099;-85
2023/05/23 07:08:39;;;;;;;10.60;7.10;;;487.30;2380.80;;;;;;5053102;28;20148;-83
2023/05/23 07:11:05;;;;;;;8.27;6.22;;;512.00;2380.80;;;;;;5052692;28;20382;-83
2023/05/23 07:13:31;;;;;;;10.27;6.10;;;512.10;2380.80;;;;;;5052899;28;20021;-82
2023/05/23 07:15:57;;;;;;;9.70;6.30;;;512.20;2380.80;;;;;;5054783;28;20033;-84
2023/05/23 07:18:24;;;;;;;8.93;6.15;;;512.30;2380.80;;;;;;5056900;28;20143;-83
2023/05/23 07:20:49;;;;;;;8.80;6.20;;;512.40;2380.80;;;;;;5057174;28;20112;-84
2023/05/23 07:23:16;;;;;;;8.77;5.95;;;512.70;2380.80;;;;;;5052689;28;20616;-83
2023/05/23 07:25:43;;;;;;;11.13;6.75;;;537.60;2406.40;;;;;;5035995;28;20033;-82
2023/05/23 07:28:09;;;;;;;12.57;6.28;;;537.80;2406.40;;;;;;5036347;28;20037;-84
2023/05/23 07:30:35;;;;;;;14.60;6.40;;;537.80;2406.40;;;;;;5036391;28;20021;-84
2023/05/23 07:33:01;;;;;;;8.65;6.30;;;;;;;;;;5037244;28;20056;-82
2023/05/23 07:35:26;;;;;;;9.43;6.50;;;538.00;2406.40;;;;;;5036800;28;20112;-83
2023/05/23 07:37:52;;;;;;;13.05;7.07;;;538.00;2406.40;;;;;;5036119;28;20445;-84
2023/05/23 07:40:18;;;;;;;11.90;6.07;;;538.00;2406.40;;;;;;5036796;28;20021;-82
2023/05/23 07:42:44;;;;;;;16.35;7.85;;;538.00;2406.40;;;;;;5036593;28;20040;-82
2023/05/23 07:45:11;;;;;;;9.73;6.00;;;538.00;2406.40;;;;;;5036588;28;20030;-83
2023/05/23 07:47:37;;;;;;;10.30;6.38;;;538.20;2406.40;;;;;;5036406;28;20037;-83
2023/05/23 07:50:03;;;;;;;8.40;6.18;;;538.20;2406.40;;;;;;5036263;28;20379;-84
2023/05/23 07:52:30;;;;;;;9.25;6.60;;;538.30;2406.40;;;;;;5037087;28;20056;-83
2023/05/23 07:54:57;;;;;;;7.53;5.47;;;538.50;2406.40;;;;;;5036766;28;20364;-83
2023/05/23 07:57:26;;;;;;;9.20;5.00;;;563.20;2432.00;;;;;;5036239;28;20148;-84
2023/05/23 07:59:52;;;;;;;6.38;4.97;;;563.50;2432.00;;;;;;5040372;28;20025;-83
2023/05/23 08:02:19;;;;;;;8.30;5.00;;;563.80;2432.00;;;;;;5056249;28;20028;-83
2023/05/23 08:04:46;;;;;;;8.45;4.93;;;563.90;2432.00;;;;;;5056448;28;20064;-83
2023/05/23 08:07:12;;;;;;;11.40;5.40;;;564.10;2432.00;;;;;;5058937;28;20029;-83
2023/05/23 08:09:41;;;;;;;7.25;4.93;;;564.10;2432.00;;;;;;5058357;28;20071;-84
2023/05/23 08:12:08;;;;;;;6.80;5.07;;;589.00;2432.00;;;;;;5057710;28;20029;-84
2023/05/23 08:14:34;;;;;;;8.60;4.90;;;588.90;2432.00;;;;;;5058310;28;20051;-86
2023/05/23 08:17:01;;;;;;;11.10;5.97;;;589.10;2432.00;;;;;;5058769;28;20032;-85
2023/05/23 08:19:27;;;;;;;9.02;5.85;;;589.20;2432.00;;;;;;5057222;28;20355;-85
2023/05/23 08:21:53;;;;;;;8.57;5.28;;;589.30;2432.00;;;;;;5058980;28;20025;-87
2023/05/23 08:24:19;;;;;;;9.00;4.95;;;589.50;2432.00;;;;;;5059484;28;20578;-85
2023/05/23 08:26:46;;;;;;;8.27;5.38;;;589.50;2406.40;;;;;;5061821;28;20036;-85
2023/05/23 08:29:12;;;;;;;9.20;5.68;;;589.30;2432.00;;;;;;5062673;28;20033;-84
2023/05/23 08:31:38;;;;;;;17.15;6.18;;;589.60;2432.00;;;;;;5057944;28;20090;-86
2023/05/23 08:34:04;;;;;;;9.98;5.95;;;589.70;2432.00;;;;;;5058613;28;20025;-85
2023/05/23 08:36:33;;;;;;;7.85;4.97;;;589.60;2406.40;;;;;;5057318;28;20025;-85
2023/05/23 08:38:59;;;;;;;7.65;5.00;;;589.60;2380.80;;;;;;5058386;28;20043;-84
2023/05/23 08:41:26;;;;;;;10.15;4.95;;;614.50;2406.40;;;;;;5060576;28;20025;-83
2023/05/23 08:43:52;;;;;;;39.58;29.52;;;614.80;2329.60;;;;;;5062560;28;20070;-83
2023/05/23 08:46:17;;;;;;;10.05;5.53;;;614.80;2252.80;;;;;;5067071;28;20075;-83
2023/05/23 08:48:50;;;;;;;10.50;5.63;;;614.70;2227.20;;;;;;5063587;28;20070;-84
2023/05/23 08:51:17;;;;;;;6.72;4.97;;;614.70;2252.80;;;;;;5062155;28;20029;-84
2023/05/23 08:53:46;;;;;;;16.83;5.05;;;614.90;2201.60;;;;;;5059677;28;20029;-83
2023/05/23 08:56:12;;;;;;;6.57;4.25;;;614.90;2201.60;;;;;;5055938;28;20024;-84
2023/05/23 08:58:41;;;;;;;7.20;4.60;;;614.70;2176.00;;;;;;5055317;28;20057;-84
2023/05/23 09:01:10;;;;;;;11.30;7.53;;;615.10;2176.00;;;;;;5054652;28;20032;-83
2023/05/23 09:03:36;;;;;;;12.32;6.15;;;615.30;2150.40;;;;;;5054827;28;20029;-83
2023/05/23 09:06:05;;;;;;;14.10;8.25;;;640.50;2124.80;;;;;;5054761;28;20478;-83
2023/05/23 09:08:31;;;;;;;9.07;5.47;;;640.60;2150.40;;;;;;5054873;28;20037;-81
2023/05/23 09:10:57;;;;;;;5.93;4.82;;;640.70;2124.80;;;;;;5056190;28;20036;-82
2023/05/23 09:13:24;;;;;;;9.10;4.90;;;665.60;2150.40;;;;;;5056632;28;20025;-82
2023/05/23 09:16:01;;;;;;;8.23;4.95;;;665.70;2124.80;;;;;;5055401;28;20092;-82
2023/05/23 09:18:33;;;;;;;17.92;14.43;;;665.70;2099.20;;;;;;5055195;28;20428;-82
2023/05/23 09:21:00;;;;;;;13.23;6.22;;;665.90;2073.60;;;;;;5056844;28;20032;-82
2023/05/23 09:23:28;;;;;;;7.75;5.20;;;640.90;2022.40;;;;;;5057053;28;20032;-82
2023/05/23 09:25:54;;;;;;;6.85;4.38;;;665.70;2048.00;;;;;;5055510;28;20032;-82
2023/05/23 09:28:20;;;;;;;8.32;4.45;;;665.70;2022.40;;;;;;5054586;28;20033;-82
2023/05/23 09:30:45;;;;;;;7.20;4.07;;;640.70;1996.80;;;;;;5054330;28;20028;-82
2023/05/23 09:33:13;;;;;;;9.07;4.60;;;640.90;1971.20;;;;;;5053789;28;20021;-82
2023/05/23 09:35:45;;;;;;;6.60;4.00;;;640.90;1996.80;;;;;;5053749;28;20028;-83
2023/05/23 09:38:11;;;;;;;9.75;4.28;;;640.60;1971.20;;;;;;5054006;28;20029;-83
2023/05/23 09:40:36;;;;;;;7.07;4.50;;;640.90;1971.20;;;;;;5055575;28;20035;-82
2023/05/23 09:43:04;;;;;;;9.30;4.32;;;665.60;1971.20;;;;;;5056010;28;20079;-82
2023/05/23 09:45:31;;;;;;;11.70;4.35;;;665.90;1971.20;;;;;;5056946;28;20494;-81
2023/05/23 09:47:57;;;;;;;6.40;3.97;;;666.40;1996.80;;;;;;5055109;28;20025;-82
2023/05/23 09:50:25;;;;;;;12.70;4.70;;;666.40;1920.00;;;;;;5054538;28;20612;-82
2023/05/23 09:52:53;;;;;;;6.18;3.75;;;691.20;1920.00;;;;;;5055901;28;20074;-82
2023/05/23 09:55:18;;;;;;;7.18;4.10;;;666.10;1945.60;;;;;;5055815;28;20032;-81
2023/05/23 09:57:48;;;;;;;8.27;4.32;;;691.20;1920.00;;;;;;5053777;28;20510;-81
2023/05/23 10:00:16;;;;;;;5.72;4.00;;;691.60;1920.00;;;;;;5054908;28;20087;-82
2023/05/23 10:03:03;;;;;;;9.23;4.38;;;691.20;1894.40;;;;;;5053490;28;20029;-82
2023/05/23 10:05:34;;;;;;;6.10;3.97;;;691.20;1920.00;;;;;;5052617;28;20017;-82
2023/05/23 10:08:06;;;;;;;6.60;5.32;;;691.40;1920.00;;;;;;5053635;28;20033;-82
2023/05/23 10:10:32;;;;;;;14.18;9.00;;;691.70;1894.40;;;;;;5054994;28;20029;-81
2023/05/23 10:13:05;;;;;;;14.07;9.95;;;692.00;1868.80;;;;;;5053673;28;20460;-79
2023/05/23 10:15:37;;;;;;;7.90;5.13;;;716.90;1894.40;;;;;;5054386;28;20072;-80
2023/05/23 10:18:37;;;;;;;6.97;3.95;;;717.10;1843.20;;;;;;5055179;28;20429;-79
2023/05/23 10:21:10;;;;;;;6.10;3.80;;;717.10;1843.20;;;;;;5013374;28;20128;-80
2023/05/23 10:23:38;;;;;;;6.20;3.55;;;716.80;1817.60;;;;;;5012754;28;20033;-80
2023/05/23 10:26:04;;;;;;;9.13;3.85;;;717.00;1792.00;;;;;;4995818;28;20038;-83
2023/05/23 10:28:31;;;;;;;9.32;7.88;;;716.90;1817.60;;;;;;5012282;28;20439;-80
2023/05/23 10:30:58;;;;;;;10.57;5.85;;;717.30;1817.60;;;;;;4995291;28;20483;-79
2023/05/23 10:33:26;;;;;;;8.45;4.30;;;717.50;1843.20;;;;;;4993492;28;20061;-79
2023/05/23 10:36:18;;;;;;;8.55;4.20;;;742.40;1843.20;;;;;;5011967;28;20025;-80
2023/05/23 10:38:44;;;;;;;8.77;3.87;;;;;;;;;;4995417;28;20037;-81
2023/05/23 10:41:20;;;;;;;7.53;3.85;;;717.70;1766.40;;;;;;5011619;28;20080;-80
2023/05/23 10:44:01;;;;;;;12.23;4.35;;;717.50;1766.40;;;;;;5011879;28;20598;-80
2023/05/23 10:46:51;;;;;;;9.43;4.30;;;717.70;1792.00;;;;;;4994931;28;20026;-80
2023/05/23 10:49:17;;;;;;;9.98;4.93;;;;;;;;;;4988070;28;20046;-81
2023/05/23 10:51:46;;;;;;;7.18;3.85;;;;;;;;;;4994746;28;20034;-80
2023/05/23 10:54:12;;;;;;;7.07;4.68;;;;;;;;;;4994797;28;20022;-80
2023/05/23 10:56:38;;;;;;;7.05;3.97;;;;;;;;;;5016066;28;20056;-80
2023/05/23 10:59:05;;;;;;;7.95;4.18;;;;;;;;;;5032652;28;20041;-80
2023/05/23 11:01:31;;;;;;;5.50;3.70;;;;;;;;;;5032100;28;20026;-80
2023/05/23 11:04:04;;;;;;;7.22;3.72;;;;;;;;;;5032093;28;20025;-80
2023/05/23 11:06:43;;;;;;;5.72;3.85;;;;;;;;;;5032424;28;20479;-80
2023/05/23 11:09:17;;;;;;;5.63;3.58;;;;;;;;;;5031898;28;20511;-81
2023/05/23 11:12:04;;;;;;;5.57;3.63;;;;;;;;;;5033720;28;20112;-80
2023/05/23 11:14:33;;;;;;;8.07;3.80;;;;;;;;;;5031988;28;20021;-80
2023/05/23 11:17:11;;;;;;;7.60;4.00;;;;;;;;;;5032269;28;20112;-80
2023/05/23 11:19:38;;;;;;;8.52;4.00;;;;;;;;;;5032335;28;20352;-80
2023/05/23 11:22:08;;;;;;;7.93;4.15;;;;;;;;;;5031856;28;20457;-80
2023/05/23 11:24:53;;;;;;;9.13;4.43;;;;;;;;;;5035085;28;20117;-80
2023/05/23 11:27:33;;;;;;;6.32;4.10;;;;;;;;;;5033188;28;20029;-80
2023/05/23 11:30:18;;;;;;;9.48;4.28;;;;;;;;;;5031801;28;20381;-81
2023/05/23 11:32:54;;;;;;;9.00;4.30;;;;;;;;;;5039631;28;20028;-80
2023/05/23 11:35:21;;;;;;;6.85;4.57;;;;;;;;;;5051727;28;20027;-81
2023/05/23 11:37:47;;;;;;;7.55;4.53;;;;;;;;;;5051925;28;20382;-81
2023/05/23 11:40:26;;;;;;;6.82;3.80;;;;;;;;;;5051971;28;20025;-81
2023/05/23 11:42:52;;;;;;;5.32;3.40;;;;;;;;;;5052778;28;20028;-80
2023/05/23 11:45:25;;;;;;;8.10;5.15;;;;;;;;;;5051707;28;20501;-80
2023/05/23 11:47:51;;;;;;;7.05;4.60;;;;;;;;;;5052755;28;20445;-80
2023/05/23 11:50:19;;;;;;;7.55;4.88;;;;;;;;;;5051517;28;20040;-80
2023/05/23 11:52:50;;;;;;;5.60;3.67;;;;;;;;;;5051784;28;20539;-80
2023/05/23 11:55:17;;;;;;;11.13;4.10;;;;;;;;;;5051881;28;20021;-80
2023/05/23 11:57:43;;;;;;;7.38;3.72;;;;;;;;;;5050949;28;20049;-81
2023/05/23 12:00:10;;;;;;;7.95;4.15;;;;;;;;;;5052969;28;20025;-81
2023/05/23 12:02:40;;;;;;;8.90;4.38;;;;;;;;;;5054611;28;20355;-81
2023/05/23 12:05:09;;;;;;;11.27;4.80;;;;;;;;;;5055556;28;20029;-80
2023/05/23 12:07:35;;;;;;;8.57;4.13;;;;;;;;;;5057235;28;20064;-81
2023/05/23 12:10:04;;;;;;;6.20;4.32;;;;;;;;;;5056586;28;20469;-79
2023/05/23 12:12:31;;;;;;;8.80;4.72;;;;;;;;;;5055495;28;20017;-80
2023/05/23 12:14:58;;;;;;;10.27;4.20;;;;;;;;;;5055565;28;20030;-81
2023/05/23 12:17:24;;;;;;;9.70;4.03;;;;;;;;;;5055536;28;20440;-83
2023/05/23 12:19:52;;;;;;;8.82;4.30;;;;;;;;;;5056057;28;20033;-81
2023/05/23 12:22:25;;;;;;;9.23;3.80;;;;;;;;;;5056190;28;20021;-81
2023/05/23 12:24:55;;;;;;;6.57;3.58;;;;;;;;;;5055230;28;20459;-81
2023/05/23 12:27:32;;;;;;;7.25;3.70;;;;;;;;;;5055278;28;20430;-82
2023/05/23 12:30:08;;;;;;;5.57;3.88;;;;;;;;;;5055139;28;20413;-80
2023/05/23 12:32:35;;;;;;;9.73;4.15;;;;;;;;;;5056740;28;20458;-81
2023/05/23 12:35:01;;;;;;;7.95;5.10;;;;;;;;;;5056454;28;20059;-80